Time;durP1;ratioP1;P1;durP2;ratioP2;P2;SDS_P1;SDS_P2;PMS_P1;PMS_P2;Temp;Humidity;BMP_temperature;BMP_pressure;BME280_temperature;BME280_humidity;BME280_pressure;Samples;Min_cycle;Max_cycle;Signal;HPM_P1;HPM_P2
2023/02/17 00:00:07;;;;;;;9.73;3.72;;;;;;;7.07;62.55;96351.19;5088712;28;20044;-72
2023/02/17 00:02:57;;;;;;;9.70;4.13;;;;;;;7.02;63.14;96345.84;5082890;28;20044;-72
2023/02/17 00:05:24;;;;;;;8.10;3.85;;;;;;;7.07;63.11;96345.19;5087208;28;20043;-72
2023/02/17 00:07:49;;;;;;;9.93;3.78;;;;;;;6.80;65.83;96344.78;5088304;28;20040;-73
2023/02/17 00:10:15;;;;;;;8.32;4.47;;;;;;;6.86;64.55;96338.66;5089327;28;20071;-73
2023/02/17 00:12:40;;;;;;;8.43;4.05;;;;;;;6.86;64.88;96343.88;5086781;28;20406;-73
2023/02/17 00:15:07;;;;;;;7.18;3.75;;;;;;;6.92;64.06;96342.97;5087495;28;20085;-73
2023/02/17 00:17:32;;;;;;;11.13;3.92;;;;;;;6.87;64.20;96345.50;5088605;28;20127;-73
2023/02/17 00:19:58;;;;;;;8.30;3.70;;;;;;;6.79;64.44;96343.97;5088194;28;20571;-72
2023/02/17 00:22:23;;;;;;;9.70;4.18;;;;;;;6.76;65.23;96339.97;5085653;28;20044;-73
2023/02/17 00:24:49;;;;;;;9.52;4.15;;;;;;;6.76;65.28;96345.22;5088329;28;20040;-73
2023/02/17 00:27:14;;;;;;;11.15;4.50;;;;;;;6.87;64.29;96342.88;5089581;28;20040;-73
2023/02/17 00:29:40;;;;;;;8.38;3.88;;;;;;;6.89;64.65;96343.44;5090117;28;20040;-73
2023/02/17 00:32:06;;;;;;;8.73;4.28;;;;;;;6.91;64.24;96336.16;5086044;28;20469;-74
2023/02/17 00:34:31;;;;;;;16.30;4.63;;;;;;;6.89;64.34;96340.81;5090580;28;20104;-75
2023/02/17 00:36:57;;;;;;;8.88;3.80;;;;;;;6.88;64.70;96336.59;5088662;28;20036;-71
2023/02/17 00:39:22;;;;;;;8.88;3.80;;;;;;;6.78;65.00;96337.16;5095134;28;20078;-72
2023/02/17 00:41:48;;;;;;;11.18;4.18;;;;;;;6.83;64.42;96333.88;5090613;28;20059;-73
2023/02/17 00:44:17;;;;;;;9.98;4.13;;;;;;;6.78;65.01;96341.59;5091045;28;20632;-72
2023/02/17 00:46:44;;;;;;;7.95;4.07;;;;;;;6.81;64.10;96341.13;5116842;27;20085;-73
2023/02/17 00:49:22;;;;;;;9.05;4.18;;;;;;;6.80;65.04;96344.78;5112884;27;20031;-72
2023/02/17 00:51:47;;;;;;;9.65;4.03;;;;;;;6.69;66.88;96344.50;5117612;27;20028;-72
2023/02/17 00:54:13;;;;;;;9.00;3.67;;;;;;;6.79;64.31;96343.97;5110174;28;20028;-72
2023/02/17 00:56:42;;;;;;;10.65;4.35;;;;;;;6.81;64.14;96341.94;5117405;27;20088;-72
2023/02/17 00:59:08;;;;;;;10.48;4.32;;;;;;;6.82;64.71;96347.97;5119688;28;20047;-72
2023/02/17 01:01:36;;;;;;;7.15;3.90;;;;;;;6.72;65.44;96341.47;5118077;27;20059;-73
2023/02/17 01:04:02;;;;;;;9.82;4.43;;;;;;;6.73;64.76;96343.06;5117826;27;20036;-71
2023/02/17 01:06:31;;;;;;;9.23;3.88;;;;;;;6.76;64.92;96339.97;5118357;28;20081;-72
2023/02/17 01:08:57;;;;;;;11.85;4.65;;;;;;;6.72;64.91;96336.25;5118704;27;20054;-72
2023/02/17 01:11:28;;;;;;;7.90;4.15;;;;;;;6.64;65.41;96336.56;5108822;27;20044;-73
2023/02/17 01:13:55;;;;;;;9.43;3.72;;;;;;;6.76;64.82;96342.59;5105142;28;20065;-72
2023/02/17 01:16:26;;;;;;;8.90;4.45;;;;;;;6.66;65.31;96337.13;5459603;22;20082;-72
2023/02/17 01:18:52;;;;;;;9.05;4.50;;;;;;;6.56;65.95;96336.88;5086749;28;20381;-72
2023/02/17 01:21:29;;;;;;;7.63;3.70;;;;;;;6.51;66.93;96336.75;5079636;28;20048;-73
2023/02/17 01:24:06;;;;;;;10.63;4.50;;;;;;;6.37;67.37;96342.16;5073745;28;20457;-72
2023/02/17 01:26:33;;;;;;;12.75;4.53;;;;;;;6.45;66.87;96332.41;5091175;28;20135;-71
2023/02/17 01:28:59;;;;;;;9.98;4.38;;;;;;;6.36;67.49;96332.69;5082336;28;20052;-72
2023/02/17 01:31:26;;;;;;;9.15;4.32;;;;;;;6.00;74.10;96330.97;5086503;28;20032;-72
2023/02/17 01:33:55;;;;;;;9.73;4.13;;;;;;;5.95;72.42;96329.00;5090888;28;20045;-72
2023/02/17 01:36:20;;;;;;;11.07;4.35;;;;;;;5.64;73.51;96330.72;5090900;28;20048;-72
2023/02/17 01:38:46;;;;;;;9.80;4.32;;;;;;;5.57;76.00;96324.78;5073661;28;20422;-73
2023/02/17 01:41:13;;;;;;;8.95;4.47;;;;;;;5.31;77.88;96324.03;5089112;28;20043;-72
2023/02/17 01:43:39;;;;;;;10.60;4.25;;;;;;;5.14;81.33;96323.78;5089615;28;20626;-72
2023/02/17 01:46:06;;;;;;;8.88;4.47;;;;;;;4.96;80.91;96327.16;5089650;28;20040;-72
2023/02/17 01:48:37;;;;;;;11.07;4.40;;;;;;;4.93;82.62;96327.56;5066320;28;20522;-72
2023/02/17 01:51:14;;;;;;;7.50;3.80;;;;;;;5.34;76.67;96318.41;5069114;28;20059;-72
2023/02/17 01:53:45;;;;;;;11.20;4.53;;;;;;;5.51;75.27;96317.81;5088669;28;20449;-72
2023/02/17 01:56:12;;;;;;;8.80;3.58;;;;;;;5.51;75.66;96315.22;5089799;28;20036;-72
2023/02/17 01:58:43;;;;;;;7.18;3.45;;;;;;;5.35;80.65;96324.41;5089912;28;20044;-72
2023/02/17 02:01:09;;;;;;;9.32;3.95;;;;;;;5.35;80.00;96319.97;5090260;28;20067;-72
2023/02/17 02:03:37;;;;;;;8.82;4.07;;;;;;;5.61;77.52;96323.31;5084696;28;20515;-72
2023/02/17 02:06:06;;;;;;;10.13;4.22;;;;;;;5.51;78.97;96317.81;5089902;28;20491;-72
2023/02/17 02:08:43;;;;;;;9.02;3.70;;;;;;;5.61;77.54;96318.09;5090028;28;20437;-72
2023/02/17 02:11:08;;;;;;;8.30;3.80;;;;;;;5.29;83.93;96307.78;5081519;28;20567;-72
2023/02/17 02:13:34;;;;;;;8.73;3.67;;;;;;;5.48;79.34;96307.81;5087324;28;20032;-72
2023/02/17 02:16:12;;;;;;;9.15;3.88;;;;;;;5.38;84.23;96309.09;5087989;28;20298;-72
2023/02/17 02:18:43;;;;;;;8.48;4.07;;;;;;;5.46;82.42;96315.88;5090817;28;20051;-72
2023/02/17 02:21:36;;;;;;;8.30;3.60;;;;;;;5.51;83.91;96312.59;5083519;28;20108;-72
2023/02/17 02:24:18;;;;;;;10.07;3.80;;;;;;;5.32;85.52;96304.75;5082779;28;20044;-73
2023/02/17 02:27:15;;;;;;;8.23;3.72;;;;;;;5.42;84.28;96313.91;5070419;28;20036;-73
2023/02/17 02:30:15;;;;;;;9.75;3.67;;;;;;;5.93;76.95;96310.09;5088649;28;20044;-72
2023/02/17 02:32:58;;;;;;;9.57;3.67;;;;;;;6.36;70.60;96314.41;5082680;28;20044;-73
2023/02/17 02:35:35;;;;;;;8.88;3.65;;;;;;;6.48;70.38;96321.50;5085241;28;20036;-73
2023/02/17 02:38:41;;;;;;;9.32;3.60;;;;;;;6.62;68.94;96322.09;5081889;28;20110;-73
2023/02/17 02:41:36;;;;;;;8.98;3.50;;;;;;;6.63;68.75;96319.25;5082002;28;20044;-73
2023/02/17 02:44:07;;;;;;;8.55;3.45;;;;;;;6.73;69.06;96322.13;5080479;28;20511;-73
2023/02/17 02:46:33;;;;;;;9.32;3.80;;;;;;;6.81;67.10;96325.44;5089570;28;20060;-72
2023/02/17 02:48:59;;;;;;;6.43;3.30;;;;;;;6.74;71.35;96321.13;5090434;28;20040;-73
2023/02/17 02:51:31;;;;;;;11.85;3.65;;;;;;;6.82;68.08;96316.56;5079918;28;20388;-73
2023/02/17 02:54:31;;;;;;;10.95;3.70;;;;;;;6.98;66.23;96320.34;5072066;28;20084;-73
2023/02/17 02:57:16;;;;;;;8.77;3.13;;;;;;;7.15;65.23;96310.00;5089235;28;20047;-73
2023/02/17 02:59:47;;;;;;;;;;;;;;;7.13;65.29;96314.69;5088058;28;20032;-73
2023/02/17 03:02:51;;;;;;;8.32;3.72;;;;;;;7.36;64.09;96306.81;5080988;28;19978;-73
2023/02/17 03:05:20;;;;;;;7.15;3.65;;;;;;;7.41;64.11;96303.50;5083213;28;20044;-73
2023/02/17 03:07:50;;;;;;;9.57;4.07;;;;;;;7.39;64.33;96301.13;5089855;28;20036;-73
2023/02/17 03:10:16;;;;;;;7.57;3.58;;;;;;;7.32;65.78;96297.81;5082204;28;20037;-73
2023/02/17 03:12:42;;;;;;;7.40;3.47;;;;;;;7.26;66.01;96293.50;5087252;28;20097;-73
2023/02/17 03:15:21;;;;;;;9.25;3.97;;;;;;;7.33;66.18;96296.81;5088899;28;20512;-73
2023/02/17 03:17:47;;;;;;;9.00;4.03;;;;;;;7.58;63.78;96293.13;5089099;28;20527;-73
2023/02/17 03:20:13;;;;;;;11.48;3.83;;;;;;;7.59;64.08;96294.72;5081480;28;20044;-72
2023/02/17 03:22:42;;;;;;;8.25;3.45;;;;;;;7.53;64.49;96290.38;5089751;28;20044;-73
2023/02/17 03:25:08;;;;;;;9.45;3.55;;;;;;;7.58;63.37;96293.13;5086931;28;20123;-73
2023/02/17 03:27:34;;;;;;;8.18;3.65;;;;;;;7.60;63.37;96285.81;5082406;28;20071;-73
2023/02/17 03:29:59;;;;;;;9.75;3.70;;;;;;;7.60;62.88;96291.06;5080990;28;20036;-73
2023/02/17 03:32:25;;;;;;;7.85;3.92;;;;;;;7.62;63.09;96289.03;5085656;28;20071;-73
2023/02/17 03:34:50;;;;;;;9.18;3.70;;;;;;;7.64;62.80;96271.25;5089623;28;20491;-73
2023/02/17 03:37:16;;;;;;;8.93;3.50;;;;;;;7.59;63.71;96284.25;5089977;28;20044;-73
2023/02/17 03:39:41;;;;;;;9.27;3.65;;;;;;;7.62;62.87;96283.78;5086705;28;20040;-72
2023/02/17 03:42:07;;;;;;;8.45;3.70;;;;;;;7.65;61.68;96277.28;5087080;28;20096;-72
2023/02/17 03:44:33;;;;;;;11.95;3.55;;;;;;;7.59;62.26;96271.16;5087241;28;20046;-73
2023/02/17 03:46:58;;;;;;;11.40;3.97;;;;;;;7.69;61.88;96276.59;5089778;28;20032;-73
2023/02/17 03:49:24;;;;;;;7.57;3.22;;;;;;;7.74;61.29;96281.13;5088580;28;20050;-73
2023/02/17 03:51:49;;;;;;;6.90;3.47;;;;;;;7.79;61.10;96274.16;5069439;28;20071;-73
2023/02/17 03:54:15;;;;;;;12.00;3.58;;;;;;;7.82;60.51;96266.88;5081716;28;20040;-73
2023/02/17 03:56:41;;;;;;;6.85;3.60;;;;;;;7.75;61.02;96278.28;5089348;28;20123;-73
2023/02/17 03:59:06;;;;;;;11.60;3.40;;;;;;;7.74;60.76;96268.84;5088372;28;20047;-73
2023/02/17 04:01:32;;;;;;;6.90;3.67;;;;;;;7.84;60.22;96270.06;5089341;28;20043;-73
2023/02/17 04:03:58;;;;;;;15.65;3.40;;;;;;;7.72;61.26;96263.03;5080783;28;20048;-73
2023/02/17 04:06:23;;;;;;;7.53;3.20;;;;;;;7.87;60.06;96259.09;5089520;28;20495;-73
2023/02/17 04:08:49;;;;;;;9.07;3.33;;;;;;;7.93;59.21;96263.41;5089751;28;20040;-73
2023/02/17 04:11:15;;;;;;;8.88;3.20;;;;;;;7.88;60.33;96266.72;5092671;28;20439;-73
2023/02/17 04:13:40;;;;;;;8.52;3.20;;;;;;;7.90;60.46;96263.88;5089209;28;20086;-73
2023/02/17 04:16:08;;;;;;;8.23;3.20;;;;;;;8.01;59.84;96270.13;5075198;28;20036;-73
2023/02/17 04:18:34;;;;;;;6.63;3.33;;;;;;;7.93;59.68;96263.41;5093034;28;20101;-74
2023/02/17 04:21:00;;;;;;;6.50;2.90;;;;;;;8.03;59.14;96263.63;5083208;28;20043;-72
2023/02/17 04:23:25;;;;;;;6.97;3.10;;;;;;;8.10;59.11;96259.03;5090964;28;20040;-72
2023/02/17 04:25:51;;;;;;;6.80;2.78;;;;;;;8.11;58.65;96260.59;5087875;28;20047;-73
2023/02/17 04:28:17;;;;;;;6.43;2.97;;;;;;;8.21;57.85;96259.22;5091185;28;20044;-73
2023/02/17 04:30:45;;;;;;;7.78;3.10;;;;;;;8.25;58.17;96260.34;5089548;28;20044;-73
2023/02/17 04:33:11;;;;;;;5.88;2.97;;;;;;;8.25;57.71;96255.09;5084911;28;20040;-72
2023/02/17 04:35:37;;;;;;;7.60;2.97;;;;;;;8.28;57.96;96260.63;5092882;28;20043;-73
2023/02/17 04:38:03;;;;;;;6.20;3.20;;;;;;;8.32;57.49;96268.84;5088650;28;20047;-73
2023/02/17 04:40:30;;;;;;;8.32;3.33;;;;;;;8.41;57.22;96254.31;5091568;28;20046;-73
2023/02/17 04:42:55;;;;;;;9.85;3.35;;;;;;;8.37;57.35;96258.44;5091659;28;20044;-73
2023/02/17 04:45:21;;;;;;;9.48;3.50;;;;;;;8.44;57.07;96259.09;5092854;28;20040;-72
2023/02/17 04:47:47;;;;;;;6.20;2.90;;;;;;;8.44;56.78;96253.84;5085801;28;20051;-73
2023/02/17 04:50:13;;;;;;;6.80;3.08;;;;;;;8.47;56.89;96253.38;5092740;28;20055;-73
2023/02/17 04:52:38;;;;;;;5.80;3.00;;;;;;;8.55;56.08;96254.03;5087775;28;20043;-73
2023/02/17 04:55:05;;;;;;;5.75;2.80;;;;;;;8.59;56.27;96249.91;5092596;28;20136;-73
2023/02/17 04:57:31;;;;;;;12.43;3.30;;;;;;;8.72;55.40;96248.78;5090471;28;20044;-72
2023/02/17 04:59:56;;;;;;;5.93;2.78;;;;;;;8.62;55.80;96244.16;5074454;28;20032;-72
2023/02/17 05:02:22;;;;;;;5.95;3.10;;;;;;;8.71;55.40;96248.00;5086412;28;20153;-72
2023/02/17 05:04:48;;;;;;;7.88;3.00;;;;;;;8.82;54.91;96234.00;5090597;28;20423;-72
2023/02/17 05:07:13;;;;;;;9.05;2.83;;;;;;;8.77;55.40;96236.53;5089486;28;20051;-72
2023/02/17 05:09:39;;;;;;;4.93;2.78;;;;;;;8.72;55.46;96233.03;5092350;28;20032;-73
2023/02/17 05:12:06;;;;;;;5.50;2.60;;;;;;;8.73;55.27;96230.19;5087445;28;20036;-73
2023/02/17 05:14:32;;;;;;;7.97;3.20;;;;;;;8.63;55.88;96235.28;5074204;28;20123;-72
2023/02/17 05:16:57;;;;;;;9.18;3.00;;;;;;;8.74;55.24;96223.91;5090456;28;20580;-73
2023/02/17 05:19:23;;;;;;;10.02;3.10;;;;;;;8.72;55.64;96223.34;5086780;28;20061;-73
2023/02/17 05:21:50;;;;;;;6.85;2.90;;;;;;;8.76;55.43;96219.19;5076367;28;20491;-72
2023/02/17 05:24:16;;;;;;;7.85;3.28;;;;;;;8.61;56.18;96217.16;5091696;28;20047;-73
2023/02/17 05:26:41;;;;;;;6.72;2.97;;;;;;;8.69;55.85;96218.56;5090934;28;20389;-73
2023/02/17 05:29:07;;;;;;;7.03;3.08;;;;;;;8.75;55.96;96222.88;5073459;28;20110;-73
2023/02/17 05:31:33;;;;;;;11.07;3.03;;;;;;;8.74;56.13;96221.28;5072060;28;20055;-73
2023/02/17 05:33:58;;;;;;;10.63;3.10;;;;;;;8.82;55.59;96223.50;5086162;28;20538;-74
2023/02/17 05:36:24;;;;;;;10.68;3.50;;;;;;;8.80;55.59;96209.81;5074774;28;20047;-72
2023/02/17 05:38:50;;;;;;;10.35;3.00;;;;;;;8.80;56.11;96224.78;5091799;28;20036;-72
2023/02/17 05:41:17;;;;;;;9.57;3.08;;;;;;;8.86;55.45;96228.28;5085863;28;20036;-72
2023/02/17 05:43:43;;;;;;;7.13;3.10;;;;;;;8.76;55.71;96224.44;5089370;28;20464;-72
2023/02/17 05:46:08;;;;;;;11.38;3.00;;;;;;;8.83;55.95;96227.72;5089896;28;20040;-72
2023/02/17 05:48:34;;;;;;;12.70;4.00;;;;;;;8.71;56.12;96232.25;5091938;28;20040;-72
2023/02/17 05:50:59;;;;;;;8.88;3.00;;;;;;;8.71;55.74;96224.38;5074410;28;20648;-73
2023/02/17 05:53:25;;;;;;;6.30;2.72;;;;;;;8.75;56.08;96233.38;5092195;28;20487;-73
2023/02/17 05:55:51;;;;;;;12.35;3.20;;;;;;;8.66;56.63;96240.03;5090662;28;20039;-73
2023/02/17 05:58:17;;;;;;;9.52;3.10;;;;;;;8.83;55.05;96229.53;5087043;28;20515;-73
2023/02/17 06:00:44;;;;;;;6.75;2.80;;;;;;;8.82;55.11;96228.75;5087446;28;20047;-73
2023/02/17 06:03:16;;;;;;;6.32;2.90;;;;;;;8.70;55.37;96225.41;5084790;28;20616;-72
2023/02/17 06:05:44;;;;;;;7.13;2.70;;;;;;;8.81;55.35;96232.41;5091814;28;20076;-73
2023/02/17 06:08:09;;;;;;;6.85;2.72;;;;;;;8.73;55.79;96240.66;5072799;28;20538;-73
2023/02/17 06:10:35;;;;;;;7.70;2.90;;;;;;;8.73;55.87;96234.63;5091911;28;20052;-73
2023/02/17 06:13:00;;;;;;;7.75;2.83;;;;;;;8.88;54.92;96231.44;5065632;28;20134;-73
2023/02/17 06:15:26;;;;;;;6.10;2.85;;;;;;;8.81;55.34;96227.16;5087801;28;20052;-73
2023/02/17 06:17:52;;;;;;;5.82;2.42;;;;;;;8.91;55.12;96238.84;5073706;28;20043;-73
2023/02/17 06:20:17;;;;;;;12.25;3.08;;;;;;;8.82;55.59;96244.50;5063610;28;20067;-73
2023/02/17 06:22:43;;;;;;;6.85;2.78;;;;;;;8.87;55.54;96245.63;5090808;28;20072;-73
2023/02/17 06:25:09;;;;;;;6.18;3.00;;;;;;;8.80;56.03;96251.81;5088463;28;20538;-73
2023/02/17 06:27:34;;;;;;;5.88;2.70;;;;;;;8.90;56.03;96250.38;5080482;28;20384;-73
2023/02/17 06:30:00;;;;;;;10.40;2.88;;;;;;;8.82;56.70;96257.63;5083620;28;20079;-73
2023/02/17 06:32:26;;;;;;;7.88;3.30;;;;;;;8.89;56.80;96260.06;5085802;28;20487;-72
2023/02/17 06:34:52;;;;;;;7.13;2.95;;;;;;;8.96;57.89;96254.66;5070937;28;20097;-72
2023/02/17 06:37:18;;;;;;;6.93;2.78;;;;;;;8.82;64.77;96264.69;5090631;28;20123;-73
2023/02/17 06:39:43;;;;;;;10.00;2.90;;;;;;;8.56;71.86;96266.13;5090417;28;20040;-73
2023/02/17 06:42:09;;;;;;;13.23;3.10;;;;;;;8.36;72.53;96272.59;5071242;28;20067;-72
2023/02/17 06:44:34;;;;;;;5.40;2.72;;;;;;;8.29;74.75;96261.47;5070638;28;20441;-73
2023/02/17 06:47:00;;;;;;;4.88;2.33;;;;;;;8.23;75.61;96262.38;5082251;28;20048;-73
2023/02/17 06:49:25;;;;;;;11.27;3.15;;;;;;;8.25;75.20;96262.97;5070165;28;20044;-73
2023/02/17 06:51:51;;;;;;;12.20;2.83;;;;;;;8.34;72.63;96256.28;5088967;28;20101;-73
2023/02/17 06:54:16;;;;;;;10.90;2.90;;;;;;;8.47;71.97;96253.38;5088189;28;20036;-73
2023/02/17 06:56:42;;;;;;;10.63;2.80;;;;;;;8.41;72.55;96256.16;5081266;28;20159;-73
2023/02/17 06:59:08;;;;;;;4.50;2.33;;;;;;;8.45;70.23;96247.59;5072968;28;20048;-72
2023/02/17 07:01:33;;;;;;;11.55;2.92;;;;;;;8.56;70.31;96260.88;5088455;28;20040;-74
2023/02/17 07:03:59;;;;;;;8.93;3.90;;;;;;;8.62;71.22;96254.66;5075807;28;20077;-74
2023/02/17 07:06:25;;;;;;;7.53;2.90;;;;;;;8.79;70.02;96258.09;5076715;28;20054;-73
2023/02/17 07:08:52;;;;;;;10.55;2.80;;;;;;;8.79;70.47;96255.47;5075725;28;20090;-74
2023/02/17 07:11:18;;;;;;;9.23;2.75;;;;;;;9.02;70.68;96245.81;5075249;28;20477;-72
2023/02/17 07:13:44;;;;;;;8.50;2.80;;;;;;;9.11;71.48;96241.75;5086554;28;20048;-73
2023/02/17 07:16:12;;;;;;;14.93;2.55;;;;;;;9.19;71.13;96246.59;5079079;28;20172;-74
2023/02/17 07:18:37;;;;;;;7.03;2.30;;;;;;;9.31;69.96;96245.69;5093805;28;20164;-73
2023/02/17 07:21:05;;;;;;;12.98;2.72;;;;;;;9.26;71.99;96245.63;5093663;28;20099;-73
2023/02/17 07:23:30;;;;;;;7.35;2.10;;;;;;;9.29;72.33;96237.25;5095739;28;20040;-72
2023/02/17 07:26:04;;;;;;;6.22;2.40;;;;;;;9.44;70.83;96237.47;5092559;28;20036;-73
2023/02/17 07:28:30;;;;;;;9.52;2.72;;;;;;;9.51;70.64;96245.97;5085983;28;20050;-73
2023/02/17 07:30:56;;;;;;;13.18;3.38;;;;;;;9.50;71.35;96249.63;5082182;28;20036;-73
2023/02/17 07:33:21;;;;;;;12.23;2.65;;;;;;;9.60;71.54;96256.06;5083014;28;20410;-76
2023/02/17 07:35:47;;;;;;;12.02;3.78;;;;;;;9.77;70.78;96264.66;5081312;28;20060;-71
2023/02/17 07:38:13;;;;;;;15.27;2.90;;;;;;;9.77;71.49;96254.16;5088868;28;20048;-71
2023/02/17 07:40:39;;;;;;;11.30;2.60;;;;;;;9.86;69.89;96263.19;5086750;28;22268;-71
2023/02/17 07:43:04;;;;;;;8.73;2.78;;;;;;;9.82;70.17;96251.56;5091622;28;20050;-74
2023/02/17 07:45:30;;;;;;;13.18;2.58;;;;;;;9.87;69.84;96256.09;5092295;28;20059;-73
2023/02/17 07:47:55;;;;;;;13.20;3.10;;;;;;;9.93;69.67;96262.19;5093427;28;20062;-74
2023/02/17 07:50:21;;;;;;;10.18;2.70;;;;;;;9.96;69.81;96261.72;5087172;28;20047;-73
2023/02/17 07:52:46;;;;;;;9.05;2.38;;;;;;;10.01;69.47;96261.75;5097328;28;20036;-73
2023/02/17 07:55:12;;;;;;;6.15;2.50;;;;;;;9.98;70.65;96263.03;5093809;28;20036;-73
2023/02/17 07:57:37;;;;;;;3.15;2.00;;;;;;;10.09;69.01;96266.59;5093848;28;20044;-73
2023/02/17 08:00:04;;;;;;;12.07;2.80;;;;;;;10.03;69.69;96251.81;5084568;28;20066;-71
2023/02/17 08:02:30;;;;;;;7.65;2.35;;;;;;;10.05;70.25;96265.50;5083017;28;20078;-71
2023/02/17 08:04:56;;;;;;;13.95;2.90;;;;;;;10.13;69.81;96272.13;5101351;28;20047;-71
2023/02/17 08:07:22;;;;;;;8.75;2.60;;;;;;;10.14;69.25;96269.28;5091416;28;20460;-71
2023/02/17 08:15:16;;;;;;;18.00;3.37;;;;;;;10.17;72.45;96266.16;5087192;28;20039;-71
2023/02/17 08:17:43;;;;;;;9.02;2.72;;;;;;;10.16;72.52;96267.19;5093263;28;20032;-71
2023/02/17 08:20:09;;;;;;;8.02;2.50;;;;;;;10.18;72.85;96270.34;5092628;28;20384;-71
2023/02/17 08:22:36;;;;;;;8.20;2.80;;;;;;;10.10;73.75;96268.19;5074916;28;20036;-72
2023/02/17 08:25:02;;;;;;;7.78;2.60;;;;;;;10.10;74.66;96268.19;5093241;28;20047;-71
2023/02/17 08:27:27;;;;;;;13.20;2.65;;;;;;;10.11;76.32;96268.97;5072336;28;20051;-71
2023/02/17 08:29:53;;;;;;;6.57;2.60;;;;;;;10.07;75.51;96273.94;5089233;28;20070;-71
2023/02/17 08:32:18;;;;;;;11.38;2.90;;;;;;;10.13;75.30;96272.94;5088444;28;20068;-72
2023/02/17 08:34:44;;;;;;;9.63;2.38;;;;;;;10.23;75.76;96272.25;5090794;28;20115;-71
2023/02/17 08:37:10;;;;;;;14.38;2.33;;;;;;;10.33;74.21;96279.44;5096045;28;20252;-71
2023/02/17 08:39:36;;;;;;;11.40;2.70;;;;;;;10.51;74.01;96273.84;5092811;28;20073;-72
2023/02/17 08:42:03;;;;;;;11.63;2.72;;;;;;;10.49;75.40;96275.94;5089185;28;20501;-72
2023/02/17 08:44:32;;;;;;;8.85;2.58;;;;;;;10.65;73.81;96278.72;5092884;28;20043;-72
2023/02/17 08:46:57;;;;;;;8.80;2.67;;;;;;;10.66;74.36;96277.66;5092863;28;20099;-72
2023/02/17 08:49:25;;;;;;;7.82;2.35;;;;;;;10.73;74.60;96275.63;5091734;28;20060;-72
2023/02/17 08:51:51;;;;;;;13.93;3.03;;;;;;;10.62;75.29;96271.34;5092176;28;20040;-72
2023/02/17 08:54:17;;;;;;;15.98;2.55;;;;;;;10.70;75.70;96278.75;5083966;28;20040;-72
2023/02/17 08:56:43;;;;;;;8.65;2.70;;;;;;;10.70;75.22;96276.94;5090796;28;20644;-72
2023/02/17 08:59:11;;;;;;;11.85;2.83;;;;;;;10.69;74.77;96285.09;5090854;28;20040;-72
2023/02/17 09:01:38;;;;;;;10.23;2.47;;;;;;;10.69;75.11;96285.09;5077639;28;20162;-72
2023/02/17 09:04:05;;;;;;;9.30;2.75;;;;;;;10.82;74.93;96283.84;5087864;28;20055;-72
2023/02/17 09:06:37;;;;;;;10.73;2.50;;;;;;;10.75;74.99;96289.34;5092674;28;20044;-72
2023/02/17 09:09:05;;;;;;;9.35;2.72;;;;;;;10.82;75.63;96297.81;5091110;28;20082;-72
2023/02/17 09:11:30;;;;;;;10.23;2.90;;;;;;;10.80;75.47;96286.72;5086458;28;20037;-72
2023/02/17 09:13:57;;;;;;;15.70;2.90;;;;;;;10.72;77.49;96295.09;5080710;28;20036;-72
2023/02/17 09:16:23;;;;;;;11.93;2.72;;;;;;;10.71;79.18;96299.56;5074121;28;20527;-72
2023/02/17 09:18:51;;;;;;;10.25;3.47;;;;;;;10.64;78.20;96303.44;5092089;28;20044;-72
2023/02/17 09:21:16;;;;;;;16.83;3.40;;;;;;;10.50;80.96;96293.34;5086409;28;20048;-73
2023/02/17 09:23:42;;;;;;;9.43;3.13;;;;;;;10.44;85.89;96310.09;5087468;28;20115;-73
2023/02/17 09:26:10;;;;;;;7.53;3.33;;;;;;;10.27;92.10;96309.38;5091609;28;20048;-73
2023/02/17 09:28:37;;;;;;;8.68;2.70;;;;;;;10.29;89.66;96292.31;5092582;28;20617;-73
2023/02/17 09:31:16;;;;;;;9.20;3.22;;;;;;;10.23;88.67;96299.34;5082740;28;20051;-73
2023/02/17 09:33:42;;;;;;;11.13;3.33;;;;;;;10.26;89.18;96302.50;5086739;28;20089;-72
2023/02/17 09:36:09;;;;;;;9.50;3.15;;;;;;;10.23;90.83;96294.09;5092386;28;20036;-72
2023/02/17 09:38:37;;;;;;;10.65;3.72;;;;;;;10.40;89.35;96290.59;5073737;28;20555;-72
2023/02/17 09:41:15;;;;;;;7.85;2.38;;;;;;;10.47;87.58;96288.56;5087902;28;20051;-73
2023/02/17 09:43:41;;;;;;;16.27;3.42;;;;;;;10.56;86.85;96297.59;5075273;28;20414;-73
2023/02/17 09:46:22;;;;;;;12.32;3.00;;;;;;;10.53;87.37;96298.09;5093535;28;20052;-71
2023/02/17 09:48:48;;;;;;;12.88;2.97;;;;;;;10.59;85.70;96309.47;5082246;28;20643;-71
2023/02/17 09:51:33;;;;;;;12.05;3.10;;;;;;;10.64;84.42;96308.72;5083994;28;20051;-73
2023/02/17 09:54:06;;;;;;;10.82;3.35;;;;;;;10.69;84.87;96300.88;5084231;28;20415;-73
2023/02/17 09:56:38;;;;;;;9.63;2.63;;;;;;;10.75;83.10;96299.88;5086968;28;20093;-73
2023/02/17 09:59:10;;;;;;;11.73;3.80;;;;;;;10.81;82.50;96309.38;5081741;28;20044;-73
2023/02/17 10:01:37;;;;;;;9.73;2.85;;;;;;;10.87;81.08;96313.66;5088139;28;20115;-72
2023/02/17 10:04:15;;;;;;;13.00;2.85;;;;;;;11.16;80.52;96310.72;5086753;28;20036;-74
2023/02/17 10:06:48;;;;;;;10.52;3.03;;;;;;;11.37;77.65;96308.22;5089049;28;20507;-74
2023/02/17 10:09:36;;;;;;;8.25;3.00;;;;;;;11.39;77.42;96324.56;5091934;28;20048;-73
2023/02/17 10:12:05;;;;;;;11.50;3.22;;;;;;;11.34;78.15;96316.63;5084925;28;20435;-73
2023/02/17 10:14:42;;;;;;;13.75;2.80;;;;;;;11.26;77.76;96305.53;5092468;28;20032;-72
2023/02/17 10:17:22;;;;;;;12.30;2.95;;;;;;;11.49;77.85;96303.53;5073360;28;20044;-73
2023/02/17 10:20:02;;;;;;;9.10;2.92;;;;;;;11.59;75.79;96298.34;5073789;28;20121;-73
2023/02/17 10:22:30;;;;;;;9.18;2.90;;;;;;;12.10;72.96;96291.69;5081499;28;20502;-73
2023/02/17 10:24:56;;;;;;;7.97;2.70;;;;;;;12.14;72.22;96298.06;5086257;28;20072;-74
2023/02/17 10:27:31;;;;;;;8.38;2.78;;;;;;;11.99;73.40;96287.44;5087550;28;20040;-73
2023/02/17 10:30:13;;;;;;;10.73;3.17;;;;;;;11.80;74.46;96282.59;5071964;28;20032;-75
2023/02/17 10:33:11;;;;;;;12.15;3.10;;;;;;;11.74;74.55;96288.91;5072046;28;20036;-72
2023/02/17 10:35:52;;;;;;;7.15;2.78;;;;;;;11.61;74.79;96303.34;5053153;28;20674;-72
2023/02/17 10:38:44;;;;;;;9.40;3.42;;;;;;;11.94;73.23;96294.28;5086613;28;20059;-72
2023/02/17 10:41:14;;;;;;;10.13;3.15;;;;;;;12.20;71.40;96294.38;5081763;28;20070;-73
2023/02/17 10:43:43;;;;;;;4.85;2.60;;;;;;;12.45;67.92;96298.88;5069998;28;20079;-71
2023/02/17 10:46:14;;;;;;;5.88;2.30;;;;;;;12.51;67.29;96302.34;5087574;28;20051;-71
2023/02/17 10:48:46;;;;;;;7.75;2.50;;;;;;;12.50;66.90;96290.22;5074632;28;20121;-73
2023/02/17 10:51:15;;;;;;;10.70;3.13;;;;;;;12.44;67.71;96291.22;5095942;28;20044;-72
2023/02/17 10:53:46;;;;;;;6.45;2.67;;;;;;;12.37;66.94;96290.69;5090568;28;20036;-72
2023/02/17 10:56:49;;;;;;;12.57;2.60;;;;;;;12.46;66.81;96283.88;5089409;28;20138;-72
2023/02/17 10:59:24;;;;;;;7.68;3.08;;;;;;;13.10;63.29;96284.41;5066158;28;20052;-72
2023/02/17 11:01:50;;;;;;;9.60;3.28;;;;;;;13.33;62.55;96275.91;5089325;28;20165;-74
2023/02/17 11:04:16;;;;;;;11.18;2.92;;;;;;;14.07;60.67;96277.28;5088803;28;20521;-73
2023/02/17 11:06:46;;;;;;;11.20;2.70;;;;;;;14.75;58.05;96266.00;5087907;28;20071;-75
2023/02/17 11:09:27;;;;;;;11.05;2.58;;;;;;;14.60;56.99;96266.88;5090419;28;20079;-74
2023/02/17 11:12:02;;;;;;;9.40;2.90;;;;;;;15.09;54.82;96270.50;5085602;28;20040;-76
2023/02/17 11:14:30;;;;;;;6.43;2.60;;;;;;;15.03;54.47;96264.44;5070483;28;20752;-75
2023/02/17 11:17:00;;;;;;;10.48;2.92;;;;;;;14.54;55.74;96281.25;5088741;28;20437;-74
2023/02/17 11:19:27;;;;;;;9.95;2.80;;;;;;;14.10;57.82;96274.09;5088035;28;20043;-75
2023/02/17 11:21:56;;;;;;;12.32;2.75;;;;;;;14.21;56.82;96260.50;5083366;28;20047;-77
2023/02/17 11:24:21;;;;;;;11.05;2.80;;;;;;;14.26;56.66;96258.91;5088840;28;20039;-76
2023/02/17 11:26:59;;;;;;;9.32;2.65;;;;;;;14.15;57.34;96255.50;5088759;28;20044;-73
2023/02/17 11:29:25;;;;;;;15.32;2.97;;;;;;;13.82;57.49;96260.44;5082199;28;20107;-74
2023/02/17 11:32:07;;;;;;;9.73;3.03;;;;;;;13.98;57.17;96254.03;5069791;28;20048;-73
2023/02/17 11:34:36;;;;;;;8.15;2.50;;;;;;;13.57;58.78;96259.47;5092310;28;20049;-73
2023/02/17 11:37:10;;;;;;;7.75;2.80;;;;;;;13.91;58.25;96252.75;5081609;28;20044;-73
2023/02/17 11:39:48;;;;;;;10.05;3.15;;;;;;;13.76;58.74;96248.28;5087001;28;20036;-72
2023/02/17 11:42:21;;;;;;;9.85;2.58;;;;;;;14.45;56.57;96245.78;5066198;28;20138;-75
2023/02/17 11:44:47;;;;;;;6.85;2.90;;;;;;;14.48;56.79;96240.75;5088613;28;20410;-71
2023/02/17 11:47:48;;;;;;;11.90;3.15;;;;;;;14.75;55.64;96241.38;5071159;28;20050;-73
2023/02/17 11:50:37;;;;;;;13.23;2.50;;;;;;;14.17;57.25;96229.56;5068836;28;20510;-72